ENT2034 EPLL-LDSP
Flight info
| Callsign | ENT2034 |
|---|---|
| Flight time | N/A |
| Altitude | 36000 |
| Route | VIDEV DCT BABKO DCT ALAMU DCT VEBAL DCT NOVLO |
| Aircraft | B738/M-SDE2E3FGHIRWXY/LB1 |
Departure
| Time | 2026-05-08 08:08 |
|---|---|
| Airport | Łódź Władysław Reymont Airport (EPLL) |
Arrival
| Time | N/A |
|---|---|
| Airport | Split Saint Jerome Airport (LDSP) |
| Time | Latitude | Longitude | Altitude | Speed | Heading |
|---|---|---|---|---|---|
| 2026-05-08 07:53 | 51.72620 | 19.40146 | 614 ft | 0 kts | 340° |
| 2026-05-08 08:02 | 51.72604 | 19.40154 | 627 ft | 2 kts | 345° |
| 2026-05-08 08:02 | 51.72588 | 19.40160 | 627 ft | 2 kts | 354° |
| 2026-05-08 08:03 | 51.72571 | 19.40159 | 629 ft | 2 kts | 28° |
| 2026-05-08 08:03 | 51.72563 | 19.40143 | 627 ft | 1 kts | 71° |
| 2026-05-08 08:03 | 51.72562 | 19.40143 | 627 ft | 0 kts | 71° |
| 2026-05-08 08:05 | 51.72563 | 19.40147 | 614 ft | 1 kts | 71° |
| 2026-05-08 08:05 | 51.72570 | 19.40177 | 614 ft | 6 kts | 71° |
| 2026-05-08 08:05 | 51.72586 | 19.40295 | 614 ft | 12 kts | 86° |
| 2026-05-08 08:06 | 51.72568 | 19.40423 | 619 ft | 12 kts | 129° |
| 2026-05-08 08:06 | 51.72511 | 19.40519 | 614 ft | 12 kts | 143° |
| 2026-05-08 08:06 | 51.72438 | 19.40570 | 621 ft | 11 kts | 159° |
| 2026-05-08 08:06 | 51.72387 | 19.40592 | 618 ft | 4 kts | 177° |
| 2026-05-08 08:07 | 51.72359 | 19.40575 | 612 ft | 4 kts | 220° |
| 2026-05-08 08:07 | 51.72345 | 19.40531 | 625 ft | 2 kts | 249° |
| 2026-05-08 08:07 | 51.72343 | 19.40523 | 623 ft | 2 kts | 249° |
| 2026-05-08 08:07 | 51.72316 | 19.40403 | 622 ft | 40 kts | 250° |
| 2026-05-08 08:08 | 51.72134 | 19.39571 | 592 ft | 116 kts | 250° |
| 2026-05-08 08:08 | 51.71801 | 19.38033 | 702 ft | 166 kts | 252° |
| 2026-05-08 08:08 | 51.71417 | 19.36251 | 1536 ft | 170 kts | 252° |
| 2026-05-08 08:08 | 51.71026 | 19.34476 | 2597 ft | 169 kts | 251° |
| 2026-05-08 08:09 | 51.70591 | 19.32535 | 3149 ft | 200 kts | 251° |
| 2026-05-08 08:09 | 51.70118 | 19.30402 | 3954 ft | 202 kts | 255° |
| 2026-05-08 08:09 | 51.70152 | 19.28192 | 4756 ft | 204 kts | 291° |
| 2026-05-08 08:09 | 51.71039 | 19.26330 | 5307 ft | 223 kts | 324° |
| 2026-05-08 08:10 | 51.72506 | 19.25217 | 6008 ft | 235 kts | 337° |
| 2026-05-08 08:10 | 51.74041 | 19.24351 | 6900 ft | 237 kts | 339° |
| 2026-05-08 08:10 | 51.75690 | 19.23985 | 7744 ft | 246 kts | 6° |
| 2026-05-08 08:10 | 51.77301 | 19.24999 | 8529 ft | 259 kts | 36° |
| 2026-05-08 08:11 | 51.78449 | 19.27396 | 8862 ft | 286 kts | 68° |
| 2026-05-08 08:11 | 51.79110 | 19.30484 | 9623 ft | 295 kts | 72° |
| 2026-05-08 08:11 | 51.79467 | 19.33748 | 10438 ft | 300 kts | 93° |
| 2026-05-08 08:11 | 51.79240 | 19.37231 | 10779 ft | 325 kts | 99° |
| 2026-05-08 08:12 | 51.78926 | 19.41005 | 10987 ft | 352 kts | 98° |
| 2026-05-08 08:12 | 51.78605 | 19.45066 | 11251 ft | 374 kts | 98° |
| 2026-05-08 08:12 | 51.78276 | 19.49291 | 11880 ft | 382 kts | 101° |
| 2026-05-08 08:12 | 51.77370 | 19.53299 | 12640 ft | 382 kts | 123° |
| 2026-05-08 08:13 | 51.75697 | 19.56517 | 13490 ft | 380 kts | 142° |
| 2026-05-08 08:13 | 51.73517 | 19.58920 | 14272 ft | 381 kts | 150° |
| 2026-05-08 08:13 | 51.71245 | 19.61175 | 14917 ft | 386 kts | 150° |
| 2026-05-08 08:13 | 51.68937 | 19.63440 | 15574 ft | 390 kts | 150° |
| 2026-05-08 08:14 | 51.66611 | 19.65739 | 16263 ft | 394 kts | 150° |
| 2026-05-08 08:14 | 51.64278 | 19.68071 | 16935 ft | 397 kts | 150° |
| 2026-05-08 08:14 | 51.61918 | 19.70445 | 17583 ft | 402 kts | 150° |
| 2026-05-08 08:14 | 51.59534 | 19.72853 | 18220 ft | 406 kts | 150° |
| 2026-05-08 08:15 | 51.57128 | 19.75282 | 18796 ft | 410 kts | 150° |
| 2026-05-08 08:15 | 51.54703 | 19.77717 | 19406 ft | 411 kts | 152° |
| 2026-05-08 08:15 | 51.52114 | 19.79466 | 19986 ft | 408 kts | 169° |
| 2026-05-08 08:15 | 51.49308 | 19.79877 | 20581 ft | 405 kts | 185° |
| 2026-05-08 08:16 | 51.46496 | 19.79429 | 21166 ft | 407 kts | 188° |
| 2026-05-08 08:16 | 51.43669 | 19.78883 | 21691 ft | 410 kts | 188° |
| 2026-05-08 08:16 | 51.40826 | 19.78314 | 22222 ft | 413 kts | 188° |
| 2026-05-08 08:16 | 51.37966 | 19.77747 | 22751 ft | 415 kts | 188° |
| 2026-05-08 08:17 | 51.35087 | 19.77191 | 23271 ft | 417 kts | 188° |
| 2026-05-08 08:17 | 51.32188 | 19.76647 | 23761 ft | 420 kts | 187° |
| 2026-05-08 08:17 | 51.29278 | 19.76111 | 24162 ft | 423 kts | 187° |
| 2026-05-08 08:17 | 51.26379 | 19.75585 | 24549 ft | 425 kts | 187° |
| 2026-05-08 08:18 | 51.23432 | 19.75054 | 24935 ft | 428 kts | 187° |
| 2026-05-08 08:18 | 51.20465 | 19.74522 | 25308 ft | 430 kts | 187° |
| 2026-05-08 08:18 | 51.17476 | 19.73988 | 25667 ft | 433 kts | 187° |
| 2026-05-08 08:18 | 51.14465 | 19.73450 | 26014 ft | 436 kts | 187° |
| 2026-05-08 08:19 | 51.11433 | 19.72910 | 26359 ft | 439 kts | 187° |
| 2026-05-08 08:19 | 51.08392 | 19.72368 | 26703 ft | 441 kts | 187° |
| 2026-05-08 08:19 | 51.05336 | 19.71824 | 27030 ft | 444 kts | 188° |
| 2026-05-08 08:19 | 51.02253 | 19.71276 | 27341 ft | 446 kts | 188° |
| 2026-05-08 08:20 | 51.00218 | 19.70914 | 27554 ft | 448 kts | 188° |
| 2026-05-08 08:20 | 50.97095 | 19.70360 | 27878 ft | 450 kts | 188° |
| 2026-05-08 08:20 | 50.92967 | 19.69629 | 28339 ft | 451 kts | 188° |
| 2026-05-08 08:20 | 50.89847 | 19.69078 | 28779 ft | 450 kts | 188° |
| 2026-05-08 08:21 | 50.86736 | 19.68529 | 29260 ft | 449 kts | 188° |
| 2026-05-08 08:21 | 50.84641 | 19.68160 | 29579 ft | 448 kts | 188° |
| 2026-05-08 08:21 | 50.81582 | 19.67621 | 29994 ft | 448 kts | 188° |
| 2026-05-08 08:21 | 50.78483 | 19.67076 | 30340 ft | 448 kts | 188° |
| 2026-05-08 08:22 | 50.75385 | 19.66531 | 30669 ft | 448 kts | 188° |
| 2026-05-08 08:22 | 50.72289 | 19.65987 | 30989 ft | 448 kts | 188° |
| 2026-05-08 08:22 | 50.69194 | 19.65445 | 31307 ft | 448 kts | 188° |
| 2026-05-08 08:22 | 50.66092 | 19.64901 | 31613 ft | 449 kts | 189° |
| 2026-05-08 08:23 | 50.62985 | 19.64358 | 31920 ft | 449 kts | 189° |
| 2026-05-08 08:23 | 50.59879 | 19.63816 | 32263 ft | 449 kts | 189° |
| 2026-05-08 08:23 | 50.56777 | 19.63275 | 32611 ft | 448 kts | 189° |
| 2026-05-08 08:23 | 50.53676 | 19.62735 | 32929 ft | 448 kts | 189° |
| 2026-05-08 08:24 | 50.50572 | 19.62195 | 33244 ft | 448 kts | 189° |
| 2026-05-08 08:24 | 50.47504 | 19.61662 | 33562 ft | 448 kts | 189° |
| 2026-05-08 08:24 | 50.44412 | 19.61126 | 33901 ft | 447 kts | 189° |
| 2026-05-08 08:24 | 50.41318 | 19.60591 | 34197 ft | 447 kts | 189° |
| 2026-05-08 08:25 | 50.38220 | 19.60055 | 34435 ft | 447 kts | 189° |
| 2026-05-08 08:25 | 50.35186 | 19.59530 | 34669 ft | 448 kts | 189° |
| 2026-05-08 08:25 | 50.32090 | 19.58996 | 34905 ft | 448 kts | 189° |
| 2026-05-08 08:25 | 50.28988 | 19.58462 | 35149 ft | 448 kts | 189° |
| 2026-05-08 08:26 | 50.25894 | 19.57929 | 35373 ft | 448 kts | 189° |
| 2026-05-08 08:26 | 50.22792 | 19.57396 | 35590 ft | 449 kts | 189° |
| 2026-05-08 08:26 | 50.19689 | 19.56863 | 35827 ft | 448 kts | 189° |
| 2026-05-08 08:26 | 50.16590 | 19.56332 | 36063 ft | 448 kts | 189° |
| 2026-05-08 08:27 | 50.13508 | 19.55804 | 36059 ft | 452 kts | 189° |
| 2026-05-08 08:27 | 50.07262 | 19.54737 | 36072 ft | 450 kts | 189° |
| 2026-05-08 08:28 | 50.01056 | 19.53681 | 36077 ft | 447 kts | 189° |
| 2026-05-08 08:28 | 49.94879 | 19.52631 | 36078 ft | 445 kts | 189° |
| 2026-05-08 08:29 | 49.88730 | 19.51588 | 36083 ft | 444 kts | 189° |
| 2026-05-08 08:29 | 49.82592 | 19.50549 | 36080 ft | 444 kts | 189° |
| 2026-05-08 08:30 | 49.76489 | 19.49519 | 36088 ft | 444 kts | 189° |
| 2026-05-08 08:30 | 49.67231 | 19.47961 | 36071 ft | 446 kts | 189° |
| 2026-05-08 08:31 | 49.61086 | 19.46670 | 36071 ft | 444 kts | 197° |
| 2026-05-08 08:31 | 49.55331 | 19.43424 | 36076 ft | 440 kts | 206° |
| 2026-05-08 08:32 | 49.49702 | 19.39786 | 36071 ft | 441 kts | 206° |
| 2026-05-08 08:32 | 49.44028 | 19.36162 | 36064 ft | 441 kts | 205° |
| 2026-05-08 08:33 | 49.38334 | 19.32574 | 36064 ft | 441 kts | 205° |
| 2026-05-08 08:33 | 49.32678 | 19.29034 | 36069 ft | 441 kts | 205° |
| 2026-05-08 08:34 | 49.26998 | 19.25491 | 36059 ft | 440 kts | 205° |
| 2026-05-08 08:34 | 49.21328 | 19.21962 | 36067 ft | 440 kts | 205° |
| 2026-05-08 08:35 | 49.15662 | 19.18444 | 36052 ft | 439 kts | 206° |
| 2026-05-08 08:35 | 49.09996 | 19.14930 | 36061 ft | 438 kts | 206° |
| 2026-05-08 08:36 | 49.04339 | 19.11435 | 36042 ft | 438 kts | 206° |
| 2026-05-08 08:36 | 48.98720 | 19.07970 | 36050 ft | 438 kts | 206° |
| 2026-05-08 08:37 | 48.93067 | 19.04494 | 36050 ft | 438 kts | 206° |
| 2026-05-08 08:37 | 48.87404 | 19.01021 | 36051 ft | 438 kts | 206° |
| 2026-05-08 08:38 | 48.81755 | 18.97565 | 36041 ft | 438 kts | 206° |
| 2026-05-08 08:38 | 48.76093 | 18.94108 | 36046 ft | 438 kts | 206° |
| 2026-05-08 08:39 | 48.70481 | 18.90691 | 36043 ft | 437 kts | 206° |
| 2026-05-08 08:39 | 48.64837 | 18.87262 | 36048 ft | 436 kts | 206° |
| 2026-05-08 08:40 | 48.59200 | 18.83844 | 36050 ft | 436 kts | 206° |
| 2026-05-08 08:40 | 48.53569 | 18.80439 | 36053 ft | 436 kts | 206° |
| 2026-05-08 08:41 | 48.47937 | 18.77042 | 36046 ft | 436 kts | 206° |
| 2026-05-08 08:41 | 48.42302 | 18.73651 | 36040 ft | 435 kts | 206° |
| 2026-05-08 08:42 | 48.36671 | 18.70271 | 36048 ft | 435 kts | 206° |
| 2026-05-08 08:42 | 48.31036 | 18.66897 | 36048 ft | 435 kts | 206° |
| 2026-05-08 08:43 | 48.25412 | 18.63536 | 36052 ft | 435 kts | 206° |
| 2026-05-08 08:43 | 48.19784 | 18.60182 | 36057 ft | 435 kts | 206° |
| 2026-05-08 08:44 | 48.14148 | 18.56830 | 36058 ft | 435 kts | 206° |
| 2026-05-08 08:44 | 48.08554 | 18.53512 | 36058 ft | 435 kts | 206° |
| 2026-05-08 08:45 | 48.02927 | 18.50182 | 36057 ft | 435 kts | 206° |
| 2026-05-08 08:45 | 47.97303 | 18.46861 | 36058 ft | 435 kts | 206° |
| 2026-05-08 08:46 | 47.91662 | 18.43537 | 36063 ft | 435 kts | 206° |
| 2026-05-08 08:46 | 47.86038 | 18.40232 | 36056 ft | 435 kts | 206° |
| 2026-05-08 08:47 | 47.80410 | 18.36930 | 36060 ft | 434 kts | 206° |
| 2026-05-08 08:47 | 47.74785 | 18.33639 | 36060 ft | 434 kts | 206° |
| 2026-05-08 08:48 | 47.69216 | 18.30312 | 36063 ft | 433 kts | 207° |
| 2026-05-08 08:48 | 47.63645 | 18.26888 | 36061 ft | 433 kts | 207° |
| 2026-05-08 08:49 | 47.58071 | 18.23467 | 36072 ft | 433 kts | 207° |
| 2026-05-08 08:49 | 47.52496 | 18.20066 | 36070 ft | 433 kts | 207° |
| 2026-05-08 08:50 | 47.46924 | 18.16681 | 36070 ft | 433 kts | 207° |
| 2026-05-08 08:50 | 47.41352 | 18.13306 | 36071 ft | 432 kts | 207° |
| 2026-05-08 08:51 | 47.35809 | 18.09956 | 36076 ft | 432 kts | 207° |
| 2026-05-08 08:51 | 47.30248 | 18.06602 | 36066 ft | 431 kts | 207° |
| 2026-05-08 08:52 | 47.24689 | 18.03258 | 36070 ft | 431 kts | 207° |
| 2026-05-08 08:52 | 47.19146 | 17.99930 | 36075 ft | 430 kts | 207° |
| 2026-05-08 08:53 | 47.13596 | 17.96604 | 36073 ft | 430 kts | 207° |
| 2026-05-08 08:53 | 47.08090 | 17.93314 | 36079 ft | 429 kts | 207° |
| 2026-05-08 08:54 | 47.02557 | 17.90015 | 36075 ft | 429 kts | 207° |
| 2026-05-08 08:54 | 46.97036 | 17.86731 | 36080 ft | 428 kts | 207° |
| 2026-05-08 08:55 | 46.91519 | 17.83456 | 36080 ft | 427 kts | 207° |
| 2026-05-08 08:55 | 46.86004 | 17.80189 | 36080 ft | 427 kts | 207° |
| 2026-05-08 08:56 | 46.80493 | 17.76932 | 36080 ft | 427 kts | 207° |
| 2026-05-08 08:56 | 46.74982 | 17.73683 | 36081 ft | 426 kts | 207° |
| 2026-05-08 08:57 | 46.69484 | 17.70447 | 36084 ft | 426 kts | 207° |
| 2026-05-08 08:57 | 46.63985 | 17.67218 | 36085 ft | 426 kts | 207° |
| 2026-05-08 08:58 | 46.58480 | 17.63993 | 36090 ft | 427 kts | 207° |
| 2026-05-08 08:58 | 46.52970 | 17.60773 | 36089 ft | 426 kts | 207° |
| 2026-05-08 08:59 | 46.47459 | 17.57558 | 36100 ft | 427 kts | 207° |
| 2026-05-08 08:59 | 46.41978 | 17.54368 | 36089 ft | 427 kts | 207° |
| 2026-05-08 09:00 | 46.36457 | 17.51162 | 36089 ft | 428 kts | 207° |
| 2026-05-08 09:00 | 46.30925 | 17.47956 | 36099 ft | 428 kts | 207° |
| 2026-05-08 09:01 | 46.25390 | 17.44756 | 36094 ft | 428 kts | 206° |
| 2026-05-08 09:01 | 46.19884 | 17.41579 | 36094 ft | 428 kts | 206° |
| 2026-05-08 09:02 | 46.14340 | 17.38387 | 36097 ft | 429 kts | 206° |
| 2026-05-08 09:02 | 46.08801 | 17.35204 | 36099 ft | 428 kts | 206° |
| 2026-05-08 09:03 | 46.03262 | 17.32027 | 36093 ft | 428 kts | 206° |
| 2026-05-08 09:03 | 45.97691 | 17.28929 | 36093 ft | 430 kts | 203° |
| 2026-05-08 09:04 | 45.91988 | 17.26291 | 36098 ft | 431 kts | 201° |
| 2026-05-08 09:04 | 45.86260 | 17.23754 | 36097 ft | 430 kts | 201° |
| 2026-05-08 09:05 | 45.80536 | 17.21187 | 36101 ft | 430 kts | 201° |
| 2026-05-08 09:05 | 45.74854 | 17.18617 | 36101 ft | 430 kts | 201° |
| 2026-05-08 09:06 | 45.69143 | 17.16030 | 36104 ft | 430 kts | 201° |
| 2026-05-08 09:06 | 45.63431 | 17.13447 | 36097 ft | 431 kts | 201° |
| 2026-05-08 09:07 | 45.58674 | 17.11302 | 36098 ft | 431 kts | 201° |
| 2026-05-08 09:07 | 45.52951 | 17.08725 | 36100 ft | 431 kts | 201° |
| 2026-05-08 09:08 | 45.47226 | 17.06154 | 36094 ft | 431 kts | 201° |
| 2026-05-08 09:08 | 45.41493 | 17.03585 | 36094 ft | 432 kts | 201° |
| 2026-05-08 09:09 | 45.35759 | 17.01020 | 36094 ft | 432 kts | 201° |
| 2026-05-08 09:09 | 45.30054 | 16.98473 | 36095 ft | 432 kts | 201° |
| 2026-05-08 09:10 | 45.24315 | 16.95917 | 36096 ft | 432 kts | 201° |
| 2026-05-08 09:10 | 45.18623 | 16.93223 | 36095 ft | 431 kts | 204° |
| 2026-05-08 09:11 | 45.12987 | 16.90288 | 36096 ft | 431 kts | 204° |
| 2026-05-08 09:11 | 45.07356 | 16.87350 | 36095 ft | 431 kts | 204° |
| 2026-05-08 09:12 | 45.01714 | 16.84449 | 36092 ft | 431 kts | 204° |
| 2026-05-08 09:12 | 44.96099 | 16.81585 | 36094 ft | 431 kts | 203° |
| 2026-05-08 09:13 | 44.90460 | 16.78720 | 36086 ft | 429 kts | 203° |
| 2026-05-08 09:13 | 44.87698 | 16.77323 | 36066 ft | 414 kts | 203° |
| 2026-05-08 09:13 | 44.85036 | 16.75980 | 36076 ft | 398 kts | 203° |
| 2026-05-08 09:14 | 44.82471 | 16.74686 | 36067 ft | 385 kts | 203° |
| 2026-05-08 09:14 | 44.79994 | 16.73437 | 36063 ft | 371 kts | 204° |
| 2026-05-08 09:14 | 44.77604 | 16.72230 | 36071 ft | 358 kts | 204° |
| 2026-05-08 09:14 | 44.75297 | 16.71066 | 36063 ft | 346 kts | 204° |
| 2026-05-08 09:15 | 44.73080 | 16.69947 | 36068 ft | 333 kts | 204° |
| 2026-05-08 09:15 | 44.70907 | 16.68849 | 36079 ft | 332 kts | 204° |
| 2026-05-08 09:15 | 44.66487 | 16.66608 | 36104 ft | 347 kts | 204° |
| 2026-05-08 09:16 | 44.61849 | 16.64267 | 36091 ft | 358 kts | 203° |
| 2026-05-08 09:16 | 44.57188 | 16.61931 | 36060 ft | 350 kts | 203° |
| 2026-05-08 09:17 | 44.52625 | 16.59648 | 36078 ft | 349 kts | 203° |
| 2026-05-08 09:17 | 44.48022 | 16.57343 | 36079 ft | 352 kts | 203° |
| 2026-05-08 09:18 | 44.43380 | 16.55024 | 36065 ft | 356 kts | 203° |
| 2026-05-08 09:18 | 44.38710 | 16.52696 | 36074 ft | 357 kts | 203° |
| 2026-05-08 09:19 | 44.34035 | 16.50370 | 36066 ft | 356 kts | 203° |
| 2026-05-08 09:19 | 44.29371 | 16.48053 | 36046 ft | 354 kts | 203° |
| 2026-05-08 09:20 | 44.24779 | 16.45775 | 36061 ft | 350 kts | 203° |